Terminal Aerodrome Forecast
Issued by NWS

Home | Current Version | Previous Version | Text Only | Print | Product List | Glossary On
Versions: 1 2 3 4 5 6 7 8 9 10 11 12 13 14 15 16 17 18 19 20 21 22 23 24 25 26
000
FTAK31 PANC 051749
TAFAAQ
TAF
PAAQ 051749Z 0518/0618 VRB03KT P6SM OVC080
      TEMPO 0518/0520 5SM BR
     FM060300 VRB03KT 4SM -SN OVC035
     FM060600 VRB03KT 2SM -SN BR OVC025
     FM061200 VRB03KT 3/4SM -SN BR OVC010=

USA.gov is the U.S. government's official web portal to all federal, state and local government web resources and services.